MV Grace — WDH5978 — position and weather

sailwx.info

Track history (hours):
 
Tides and Currents Weather Stations Pressure Air Temp Water Temp Dewpoint Dewpoint Depression Visibility Wind Speed Wind Dir Waves Ship Positions

MV Grace

Owner: MV Cajun 3, LLC, New Orleans, LA. More information available from US FCC via Universal Licensing System and Coast Guard Vessel Documentation Center.

Last reported at 2018-Feb-20 10:38 UTC. Time now 2018-Feb-20 13:22 UTC.
Position N 29°47' W 095°04'.

Length 24 m; draft 3 m.

Type: . MMSI: 367633410.

Date/timePositionNaut miles runAvg speedWind from/ knotsBaromVisibWave heightAir tempDewpointWater temp
2018-Feb-20 10:38N 29°47' W 095°04'0 0.8
2018-Feb-20 10:17N 29°47' W 095°04'0 0.0
2018-Feb-20 09:53N 29°47' W 095°04'0 0.0
2018-Feb-20 09:18N 29°47' W 095°04'0 0.0
2018-Feb-20 08:54N 29°47' W 095°04'0 0.0
2018-Feb-20 08:13N 29°47' W 095°04'0 0.0
2018-Feb-20 08:00N 29°47' W 095°04'0 0.0
2018-Feb-20 07:30N 29°47' W 095°04'0 0.0
2018-Feb-20 07:00N 29°47' W 095°04'0 0.0
2018-Feb-20 04:30N 29°47' W 095°04'0 0.0
2018-Feb-20 04:00N 29°47' W 095°04'0 0.0
2018-Feb-20 00:50N 29°47' W 095°04'1 2.2
2018-Feb-20 00:23N 29°46' W 095°05'0 0.9
2018-Feb-19 23:56N 29°47' W 095°05'0 0.0
2018-Feb-19 22:11N 29°47' W 095°04'0 0.4
2018-Feb-19 21:09N 29°47' W 095°04'2 0.7
2018-Feb-19 18:35N 29°46' W 095°05'0 3.4
2018-Feb-19 18:27N 29°46' W 095°06'0 0.1
2018-Feb-19 18:00N 29°46' W 095°06'0 0.1
2018-Feb-19 15:15N 29°46' W 095°06'0 0.0
2018-Feb-19 14:48N 29°46' W 095°06'0 0.0
2018-Feb-19 14:25N 29°46' W 095°06'2 4.5
2018-Feb-19 14:00N 29°47' W 095°04'2 3.5
2018-Feb-19 13:29N 29°46' W 095°05'1 0.3
2018-Feb-19 11:24N 29°45' W 095°06'1 0.2
2018-Feb-19 08:25N 29°46' W 095°06'0 0.0
2018-Feb-19 07:52N 29°46' W 095°06'0 0.0
2018-Feb-19 05:58N 29°46' W 095°06'0 0.0
2018-Feb-19 05:25N 29°46' W 095°06'0 0.0
2018-Feb-19 02:09N 29°46' W 095°06'0 0.7
2018-Feb-19 01:41N 29°46' W 095°05'1 6.4
2018-Feb-19 01:30N 29°46' W 095°04'0 0.3
2018-Feb-19 00:59N 29°46' W 095°04'0 0.0
2018-Feb-19 00:30N 29°46' W 095°04'1 0.6
2018-Feb-18 22:08N 29°45' W 095°06'1 0.0
2018-Feb-18 02:57N 29°46' W 095°05'1 2.9
2018-Feb-18 02:30N 29°47' W 095°04'0 0.2
2018-Feb-18 01:58N 29°47' W 095°04'0 0.3
2018-Feb-18 01:30N 29°47' W 095°05'2 4.4
2018-Feb-18 01:00N 29°45' W 095°04'3 5.8
2018-Feb-18 00:30N 29°43' W 095°01'3 6.5
2018-Feb-18 00:00N 29°40' W 094°59'4 8.2
2018-Feb-17 23:30N 29°37' W 094°57'4 7.4
2018-Feb-17 23:00N 29°33' W 094°55'3 6.6
2018-Feb-17 22:30N 29°31' W 094°53'4 7.8
2018-Feb-17 21:59N 29°27' W 094°51'6 5.8
2018-Feb-17 21:01N 29°23' W 094°46'0 5.3
2018-Feb-17 20:59N 29°23' W 094°46'4 0.4
2018-Feb-17 12:04N 29°26' W 094°43'0 0.0
2018-Feb-17 11:44N 29°26' W 094°43'0 0.0
2018-Feb-17 11:28N 29°26' W 094°43'0 0.0
2018-Feb-17 10:28N 29°26' W 094°43'0 0.0
2018-Feb-17 09:58N 29°26' W 094°43'0 0.0
2018-Feb-17 09:29N 29°26' W 094°43'0 0.0
2018-Feb-17 08:56N 29°26' W 094°43'0 0.0
2018-Feb-17 08:30N 29°26' W 094°43'0 0.0
2018-Feb-17 07:57N 29°26' W 094°43'0 0.0
2018-Feb-17 07:28N 29°26' W 094°43'0 0.0
2018-Feb-17 07:00N 29°26' W 094°43'0 0.0
2018-Feb-17 06:30N 29°26' W 094°43'0 0.0
2018-Feb-17 05:58N 29°26' W 094°43'0 0.0
2018-Feb-17 05:30N 29°26' W 094°43'1 2.0
2018-Feb-17 05:00N 29°26' W 094°42'1 1.9
2018-Feb-17 04:30N 29°26' W 094°43'0 0.0
2018-Feb-17 03:57N 29°26' W 094°43'0 0.0
2018-Feb-17 03:30N 29°26' W 094°43'0 0.0
2018-Feb-17 03:00N 29°26' W 094°43'0 0.0
2018-Feb-17 02:30N 29°26' W 094°43'0 0.0
2018-Feb-17 02:01N 29°26' W 094°43'0 0.0
2018-Feb-17 01:30N 29°26' W 094°43'0 0.0
2018-Feb-17 01:00N 29°26' W 094°43'0 0.0
2018-Feb-17 00:30N 29°26' W 094°43'0 0.0
2018-Feb-16 23:57N 29°26' W 094°43'0 0.2
2018-Feb-16 23:29N 29°26' W 094°43'0 0.0
2018-Feb-16 22:58N 29°26' W 094°43'1 1.9
2018-Feb-16 22:30N 29°26' W 094°42'1 2.0
2018-Feb-16 21:55N 29°27' W 094°41'12 3.5
2018-Feb-16 18:35N 29°32' W 094°29'1 5.0
2018-Feb-16 18:27N 29°32' W 094°29'1 2.0
2018-Feb-16 17:53N 29°33' W 094°28'2 2.9
2018-Feb-16 17:20N 29°34' W 094°26'1 3.1
2018-Feb-16 17:00N 29°34' W 094°25'2 4.0
2018-Feb-16 16:31N 29°36' W 094°24'2 4.5
2018-Feb-16 16:00N 29°37' W 094°21'2 3.8
2018-Feb-16 15:30N 29°38' W 094°19'2 3.7
2018-Feb-16 15:00N 29°38' W 094°17'2 5.0
2018-Feb-16 14:30N 29°40' W 094°15'2 4.4
2018-Feb-16 14:00N 29°41' W 094°13'2 4.2
2018-Feb-16 13:30N 29°41' W 094°10'2 3.4
2018-Feb-16 13:00N 29°42' W 094°09'0 0.1
2018-Feb-16 12:31N 29°42' W 094°09'0 0.0
2018-Feb-16 12:00N 29°42' W 094°09'0 0.0
2018-Feb-16 11:30N 29°42' W 094°09'0 0.0
2018-Feb-16 11:00N 29°42' W 094°09'0 0.0
2018-Feb-16 10:30N 29°42' W 094°09'0 0.0
2018-Feb-16 10:00N 29°42' W 094°09'0 0.1
2018-Feb-16 09:30N 29°42' W 094°09'0 0.1
2018-Feb-16 09:01N 29°42' W 094°09'0 0.0
2018-Feb-16 08:30N 29°42' W 094°09'0 0.0
2018-Feb-16 08:00N 29°42' W 094°09'0 0.0
2018-Feb-16 07:31N 29°42' W 094°09'0 0.0
2018-Feb-16 07:00N 29°42' W 094°09'0 0.0
2018-Feb-16 06:30N 29°42' W 094°09'0 0.0
2018-Feb-16 06:00N 29°42' W 094°09'0 0.0
2018-Feb-16 05:29N 29°42' W 094°09'0 0.1
2018-Feb-16 05:00N 29°42' W 094°09'0 0.0
2018-Feb-16 04:30N 29°42' W 094°09'0 0.0
2018-Feb-16 04:00N 29°42' W 094°09'0 0.0
2018-Feb-16 03:30N 29°42' W 094°09'0 0.1
2018-Feb-16 03:00N 29°42' W 094°09'0 0.1
2018-Feb-16 02:30N 29°42' W 094°09'0 0.0
2018-Feb-16 02:00N 29°42' W 094°09'0 0.1
2018-Feb-16 01:30N 29°42' W 094°09'0 0.0
2018-Feb-16 01:00N 29°42' W 094°09'0 0.1
2018-Feb-16 00:30N 29°42' W 094°09'0 0.0
2018-Feb-16 00:00N 29°42' W 094°09'1 1.7
2018-Feb-15 23:30N 29°43' W 094°08'2 3.9
2018-Feb-15 23:00N 29°44' W 094°06'3 5.9
2018-Feb-15 22:30N 29°46' W 094°03'3 5.8
2018-Feb-15 22:00N 29°47' W 094°01'3 5.6
2018-Feb-15 21:30N 29°49' W 093°58'3 5.2
2018-Feb-15 21:00N 29°51' W 093°57'3 6.9
2018-Feb-15 20:30N 29°54' W 093°54'4 7.1
2018-Feb-15 20:00N 29°57' W 093°52'3 5.3
2018-Feb-15 19:30N 29°59' W 093°50'3 6.8
2018-Feb-15 19:00N 30°00' W 093°46'2 4.0
2018-Feb-15 18:30N 30°02' W 093°44'0 0.1
2018-Feb-15 18:00N 30°02' W 093°44'0 0.0
2018-Feb-15 17:30N 30°02' W 093°44'0 0.0
2018-Feb-15 17:00N 30°02' W 093°44'0 0.0
2018-Feb-15 16:30N 30°02' W 093°44'0 0.0
2018-Feb-15 16:01N 30°02' W 093°44'0 0.0
2018-Feb-15 15:30N 30°02' W 093°44'0 0.0
2018-Feb-15 15:00N 30°02' W 093°44'0 0.0
2018-Feb-15 14:30N 30°02' W 093°44'0 0.0
2018-Feb-15 14:00N 30°02' W 093°44'0 0.0
2018-Feb-15 13:31N 30°02' W 093°44'0 0.0
2018-Feb-15 13:00N 30°02' W 093°44'0 0.0
2018-Feb-15 12:30N 30°02' W 093°44'0 0.0
2018-Feb-15 12:00N 30°02' W 093°44'0 0.0
2018-Feb-15 11:30N 30°02' W 093°44'0 0.0
2018-Feb-15 11:00N 30°02' W 093°44'0 0.0
2018-Feb-15 10:30N 30°02' W 093°44'0 0.0
2018-Feb-15 10:00N 30°02' W 093°44'0 0.0
2018-Feb-15 09:30N 30°02' W 093°44'0 0.0
2018-Feb-15 09:00N 30°02' W 093°44'0 0.0
2018-Feb-15 08:30N 30°02' W 093°44'0 0.0
2018-Feb-15 08:00N 30°02' W 093°44'0 0.0
2018-Feb-15 07:30N 30°02' W 093°44'0 0.0
2018-Feb-15 07:00N 30°02' W 093°44'0 0.0
2018-Feb-15 06:30N 30°02' W 093°44'0 0.0
2018-Feb-15 06:00N 30°02' W 093°44'0 0.0
2018-Feb-15 05:31N 30°02' W 093°44'0 0.0
2018-Feb-15 05:00N 30°02' W 093°44'0 0.0
2018-Feb-15 04:30N 30°02' W 093°44'0 0.0
2018-Feb-15 04:00N 30°02' W 093°44'0 0.0
2018-Feb-15 03:30N 30°02' W 093°44'0 0.0
2018-Feb-15 03:00N 30°02' W 093°44'0 0.0
2018-Feb-15 02:30N 30°02' W 093°44'0 0.0
2018-Feb-15 02:00N 30°02' W 093°44'0 0.0
2018-Feb-15 01:30N 30°02' W 093°44'0 0.0
2018-Feb-15 01:00N 30°02' W 093°44'0 0.0
2018-Feb-15 00:30N 30°02' W 093°44'0 0.1
2018-Feb-15 00:00N 30°01' W 093°44'2 3.7
2018-Feb-14 23:30N 30°03' W 093°43'3 5.2
2018-Feb-14 23:00N 30°04' W 093°40'3 5.3
2018-Feb-14 22:30N 30°04' W 093°37'2 4.6
2018-Feb-14 22:00N 30°04' W 093°35'2 4.4
2018-Feb-14 21:30N 30°04' W 093°32'2 4.4
2018-Feb-14 21:00N 30°04' W 093°30'2 4.7
2018-Feb-14 20:30N 30°04' W 093°27'2 4.5
2018-Feb-14 20:00N 30°04' W 093°24'2 4.4
2018-Feb-14 19:30N 30°04' W 093°22'2 4.0
2018-Feb-14 19:00N 30°05' W 093°20'2 3.7
2018-Feb-14 18:30N 30°06' W 093°18'2 4.3
2018-Feb-14 18:00N 30°04' W 093°16'2 3.4
2018-Feb-14 17:30N 30°03' W 093°16'0 0.1
2018-Feb-14 16:59N 30°03' W 093°16'0 0.1
2018-Feb-14 16:30N 30°02' W 093°16'0 0.0
2018-Feb-14 16:00N 30°02' W 093°16'0 0.0
2018-Feb-14 15:30N 30°02' W 093°16'0 0.1
2018-Feb-14 15:00N 30°02' W 093°16'0 0.1
2018-Feb-14 14:30N 30°02' W 093°16'0 0.0
2018-Feb-14 14:00N 30°02' W 093°16'0 0.0
2018-Feb-14 13:30N 30°02' W 093°16'0 0.0
2018-Feb-14 13:00N 30°02' W 093°16'0 0.0
2018-Feb-14 12:30N 30°02' W 093°16'0 0.0
2018-Feb-14 12:00N 30°02' W 093°16'0 0.0
2018-Feb-14 11:30N 30°02' W 093°16'0 0.0
2018-Feb-14 11:00N 30°02' W 093°16'0 0.0
2018-Feb-14 10:30N 30°02' W 093°16'0 0.1
2018-Feb-14 10:00N 30°02' W 093°16'2 3.9
2018-Feb-14 09:30N 30°01' W 093°14'2 4.5
2018-Feb-14 09:00N 29°59' W 093°13'2 4.9
2018-Feb-14 08:30N 29°57' W 093°11'2 4.4
2018-Feb-14 08:00N 29°56' W 093°09'6 0.4
2018-Feb-13 16:09N 29°56' W 093°02'1 5.0
2018-Feb-13 15:59N 29°56' W 093°03'2 5.1
2018-Feb-13 15:30N 29°56' W 093°06'3 5.1
2018-Feb-13 15:00N 29°56' W 093°09'2 4.9
2018-Feb-13 14:29N 29°58' W 093°11'3 5.3
2018-Feb-13 14:00N 29°59' W 093°13'2 5.0
2018-Feb-13 13:30N 30°02' W 093°14'0 0.9
2018-Feb-13 13:00N 30°02' W 093°15'1 1.1
2018-Feb-13 12:30N 30°02' W 093°15'0 0.0
2018-Feb-13 12:00N 30°02' W 093°15'0 0.0
2018-Feb-13 11:27N 30°02' W 093°15'0 0.0
2018-Feb-13 11:00N 30°02' W 093°15'0 0.0
2018-Feb-13 10:30N 30°02' W 093°15'0 0.0
2018-Feb-13 10:00N 30°02' W 093°15'0 0.0
2018-Feb-13 09:30N 30°02' W 093°15'0 0.0
2018-Feb-13 08:59N 30°02' W 093°15'0 0.1
2018-Feb-13 08:30N 30°02' W 093°15'0 0.0
2018-Feb-13 07:59N 30°02' W 093°15'0 0.0
2018-Feb-13 07:28N 30°02' W 093°15'0 0.0
2018-Feb-13 07:00N 30°02' W 093°15'0 0.2
2018-Feb-13 06:30N 30°02' W 093°15'0 0.1
2018-Feb-13 06:00N 30°02' W 093°15'2 3.5
2018-Feb-13 05:29N 30°04' W 093°16'2 4.0
2018-Feb-13 05:00N 30°05' W 093°18'1 2.7
2018-Feb-13 04:30N 30°06' W 093°19'0 0.0
2018-Feb-13 04:00N 30°06' W 093°19'0 0.1
2018-Feb-13 03:30N 30°06' W 093°19'2 4.4
2018-Feb-13 03:00N 30°04' W 093°21'1 2.6
2018-Feb-13 02:30N 30°04' W 093°22'0 0.9
2018-Feb-13 02:00N 30°04' W 093°22'0 0.0
2018-Feb-13 01:30N 30°04' W 093°22'0 0.1
2018-Feb-13 01:00N 30°04' W 093°22'0 0.0
2018-Feb-13 00:30N 30°04' W 093°22'0 0.0
2018-Feb-13 00:00N 30°04' W 093°22'0 0.0
2018-Feb-12 23:30N 30°04' W 093°22'0 0.0
2018-Feb-12 23:00N 30°04' W 093°22'0 0.5
2018-Feb-12 22:30N 30°04' W 093°22'1 1.0
2018-Feb-12 22:00N 30°04' W 093°21'0 0.0
2018-Feb-12 21:29N 30°04' W 093°21'0 0.0
2018-Feb-12 20:55N 30°04' W 093°21'0 0.0
2018-Feb-12 20:27N 30°04' W 093°21'0 0.0
2018-Feb-12 20:00N 30°04' W 093°21'0 0.0
2018-Feb-12 19:25N 30°04' W 093°21'0 0.0
2018-Feb-12 19:00N 30°04' W 093°21'0 0.0
2018-Feb-12 18:30N 30°04' W 093°21'0 0.0
2018-Feb-12 18:00N 30°04' W 093°21'0 0.0
2018-Feb-12 17:29N 30°04' W 093°21'0 0.0
2018-Feb-12 17:00N 30°04' W 093°21'0 0.0
2018-Feb-12 16:29N 30°04' W 093°21'0 0.0
2018-Feb-12 16:00N 30°04' W 093°21'0 0.0
2018-Feb-12 15:30N 30°04' W 093°21'0 0.0
2018-Feb-12 14:59N 30°04' W 093°21'0 0.0
2018-Feb-12 14:29N 30°04' W 093°21'0 0.0
2018-Feb-12 14:00N 30°04' W 093°21'0 0.0
2018-Feb-12 13:30N 30°04' W 093°21'0 0.0
2018-Feb-12 13:00N 30°04' W 093°21'0 0.0
2018-Feb-12 12:30N 30°04' W 093°21'0 0.0
2018-Feb-12 11:59N 30°04' W 093°21'0 0.0
2018-Feb-12 11:30N 30°04' W 093°21'0 0.0
2018-Feb-12 10:59N 30°04' W 093°21'0 0.0
2018-Feb-12 10:30N 30°04' W 093°21'0 0.0
2018-Feb-12 09:55N 30°04' W 093°21'0 0.0
2018-Feb-12 09:25N 30°04' W 093°21'0 0.0
2018-Feb-12 09:00N 30°04' W 093°21'0 0.0
2018-Feb-12 08:29N 30°04' W 093°21'0 0.0
2018-Feb-12 08:00N 30°04' W 093°21'0 0.0
2018-Feb-12 07:30N 30°04' W 093°21'0 0.0
2018-Feb-12 07:00N 30°04' W 093°21'0 0.0
2018-Feb-12 06:30N 30°04' W 093°21'0 0.0
2018-Feb-12 05:55N 30°04' W 093°21'0 0.0
2018-Feb-12 05:30N 30°04' W 093°21'0 0.0
2018-Feb-12 05:00N 30°04' W 093°21'0 0.0
2018-Feb-12 04:27N 30°04' W 093°21'0 0.0
2018-Feb-12 03:57N 30°04' W 093°21'0 0.0
2018-Feb-12 03:30N 30°04' W 093°21'0 0.0
2018-Feb-12 02:59N 30°04' W 093°21'0 0.0
2018-Feb-12 02:29N 30°04' W 093°21'0 0.0
2018-Feb-12 02:00N 30°04' W 093°21'0 0.0
2018-Feb-12 01:30N 30°04' W 093°21'0 0.0
2018-Feb-12 01:00N 30°04' W 093°21'0 0.0
2018-Feb-12 00:30N 30°04' W 093°21'0 0.0
2018-Feb-12 00:00N 30°04' W 093°21'0 0.0
2018-Feb-11 23:30N 30°04' W 093°21'0 0.0
2018-Feb-11 22:59N 30°04' W 093°21'0 0.0
2018-Feb-11 22:30N 30°04' W 093°21'0 0.0
2018-Feb-11 22:00N 30°04' W 093°21'0 0.0
2018-Feb-11 21:29N 30°04' W 093°21'0 0.0
2018-Feb-11 20:55N 30°04' W 093°21'0 0.0
2018-Feb-11 20:30N 30°04' W 093°21'0 0.0
2018-Feb-11 20:00N 30°04' W 093°21'0 0.6
2018-Feb-11 19:27N 30°04' W 093°22'0 0.1
2018-Feb-11 19:00N 30°04' W 093°22'2 3.3
2018-Feb-11 18:30N 30°04' W 093°24'0 0.2
2018-Feb-11 17:58N 30°04' W 093°24'0 0.1
2018-Feb-11 17:30N 30°04' W 093°24'0 0.1
2018-Feb-11 17:00N 30°04' W 093°24'0 0.0
2018-Feb-11 16:30N 30°04' W 093°24'0 0.0
2018-Feb-11 16:00N 30°04' W 093°24'0 0.0
2018-Feb-11 15:30N 30°04' W 093°24'0 0.0
2018-Feb-11 15:00N 30°04' W 093°24'0 0.0
2018-Feb-11 14:30N 30°04' W 093°24'0 0.0
2018-Feb-11 14:00N 30°04' W 093°24'0 0.0
2018-Feb-11 13:30N 30°04' W 093°24'0 0.0
2018-Feb-11 13:00N 30°04' W 093°24'0 0.0
2018-Feb-11 12:30N 30°04' W 093°24'0 0.0
2018-Feb-11 12:00N 30°04' W 093°24'0 0.0
2018-Feb-11 11:30N 30°04' W 093°24'0 0.0
2018-Feb-11 11:00N 30°04' W 093°24'0 0.6
2018-Feb-11 10:30N 30°04' W 093°24'1 2.0
2018-Feb-11 10:00N 30°04' W 093°25'0 0.0
2018-Feb-11 09:30N 30°04' W 093°25'0 0.0
2018-Feb-11 09:00N 30°04' W 093°25'0 0.0
2018-Feb-11 08:30N 30°04' W 093°25'0 0.0
2018-Feb-11 08:00N 30°04' W 093°25'0 0.1
2018-Feb-11 07:30N 30°04' W 093°25'0 0.0
2018-Feb-11 07:00N 30°04' W 093°25'0 0.2
2018-Feb-11 06:30N 30°04' W 093°25'2 3.5
2018-Feb-11 06:00N 30°04' W 093°27'2 4.2
2018-Feb-11 05:30N 30°04' W 093°29'2 4.6
2018-Feb-11 05:00N 30°04' W 093°32'2 3.5
2018-Feb-11 04:30N 30°04' W 093°34'2 3.9
2018-Feb-11 04:00N 30°04' W 093°36'3 5.3
2018-Feb-11 03:30N 30°04' W 093°39'3 5.5
2018-Feb-11 03:00N 30°03' W 093°42'3 5.1
2018-Feb-11 02:30N 30°01' W 093°44'3 5.8
2018-Feb-11 02:00N 29°60' W 093°47'3 6.1
2018-Feb-11 01:30N 29°59' W 093°50'3 5.5
2018-Feb-11 01:00N 29°56' W 093°52'3 6.3
2018-Feb-11 00:30N 29°54' W 093°54'3 6.3
2018-Feb-11 00:00N 29°51' W 093°57'3 5.5
2018-Feb-10 23:30N 29°49' W 093°59'3 5.4
2018-Feb-10 23:00N 29°47' W 094°01'3 5.2
2018-Feb-10 22:30N 29°46' W 094°03'2 4.7
2018-Feb-10 22:00N 29°44' W 094°05'3 5.2
2018-Feb-10 21:30N 29°43' W 094°08'2 5.0
2018-Feb-10 21:00N 29°41' W 094°10'2 5.0
2018-Feb-10 20:30N 29°40' W 094°13'2 4.6
2018-Feb-10 20:00N 29°39' W 094°15'2 5.0
2018-Feb-10 19:30N 29°38' W 094°18'2 5.0
2018-Feb-10 19:00N 29°37' W 094°20'3 4.2
2018-Feb-10 18:21N 29°36' W 094°23'2 4.5
2018-Feb-10 18:00N 29°36' W 094°25'2 3.0
2018-Feb-10 17:25N 29°34' W 094°25'4 4.9
2018-Feb-10 16:32N 29°31' W 094°29'0 6.2
2018-Feb-10 16:28N 29°31' W 094°30'2 1.2
2018-Feb-10 15:07N 29°31' W 094°32'0 0.0
2018-Feb-10 14:58N 29°31' W 094°32'0 0.0
2018-Feb-10 14:27N 29°31' W 094°32'0 0.0
2018-Feb-10 13:59N 29°31' W 094°32'2 3.1
2018-Feb-10 13:29N 29°30' W 094°33'2 3.9
2018-Feb-10 13:00N 29°29' W 094°35'  
Track history (hours):
 
Tides and Currents Weather Stations Pressure Air Temp Water Temp Dewpoint Dewpoint Depression Visibility Wind Speed Wind Dir Waves Ship Positions

MV Grace

Owner: MV Cajun 3, LLC, New Orleans, LA. More information available from US FCC via Universal Licensing System and Coast Guard Vessel Documentation Center.

Last reported at 2018-Feb-20 10:38 UTC. Time now 2018-Feb-20 13:22 UTC.
Position N 29°47' W 095°04'.

Length 24 m; draft 3 m.

Type: . MMSI: 367633410.

Date/timePositionNaut miles runAvg speedWind from/ knotsBaromVisibWave heightAir tempDewpointWater temp
2018-Feb-20 10:38N 29°47' W 095°04'0 0.8
2018-Feb-20 10:17N 29°47' W 095°04'0 0.0
2018-Feb-20 09:53N 29°47' W 095°04'0 0.0
2018-Feb-20 09:18N 29°47' W 095°04'0 0.0
2018-Feb-20 08:54N 29°47' W 095°04'0 0.0
2018-Feb-20 08:13N 29°47' W 095°04'0 0.0
2018-Feb-20 08:00N 29°47' W 095°04'0 0.0
2018-Feb-20 07:30N 29°47' W 095°04'0 0.0
2018-Feb-20 07:00N 29°47' W 095°04'0 0.0
2018-Feb-20 04:30N 29°47' W 095°04'0 0.0
2018-Feb-20 04:00N 29°47' W 095°04'0 0.0
2018-Feb-20 00:50N 29°47' W 095°04'1 2.2
2018-Feb-20 00:23N 29°46' W 095°05'0 0.9
2018-Feb-19 23:56N 29°47' W 095°05'0 0.0
2018-Feb-19 22:11N 29°47' W 095°04'0 0.4
2018-Feb-19 21:09N 29°47' W 095°04'2 0.7
2018-Feb-19 18:35N 29°46' W 095°05'0 3.4
2018-Feb-19 18:27N 29°46' W 095°06'0 0.1
2018-Feb-19 18:00N 29°46' W 095°06'0 0.1
2018-Feb-19 15:15N 29°46' W 095°06'0 0.0
2018-Feb-19 14:48N 29°46' W 095°06'0 0.0
2018-Feb-19 14:25N 29°46' W 095°06'2 4.5
2018-Feb-19 14:00N 29°47' W 095°04'2 3.5
2018-Feb-19 13:29N 29°46' W 095°05'1 0.3
2018-Feb-19 11:24N 29°45' W 095°06'1 0.2
2018-Feb-19 08:25N 29°46' W 095°06'0 0.0
2018-Feb-19 07:52N 29°46' W 095°06'0 0.0
2018-Feb-19 05:58N 29°46' W 095°06'0 0.0
2018-Feb-19 05:25N 29°46' W 095°06'0 0.0
2018-Feb-19 02:09N 29°46' W 095°06'0 0.7
2018-Feb-19 01:41N 29°46' W 095°05'1 6.4
2018-Feb-19 01:30N 29°46' W 095°04'0 0.3
2018-Feb-19 00:59N 29°46' W 095°04'0 0.0
2018-Feb-19 00:30N 29°46' W 095°04'1 0.6
2018-Feb-18 22:08N 29°45' W 095°06'1 0.0
2018-Feb-18 02:57N 29°46' W 095°05'1 2.9
2018-Feb-18 02:30N 29°47' W 095°04'0 0.2
2018-Feb-18 01:58N 29°47' W 095°04'0 0.3
2018-Feb-18 01:30N 29°47' W 095°05'2 4.4
2018-Feb-18 01:00N 29°45' W 095°04'3 5.8
2018-Feb-18 00:30N 29°43' W 095°01'3 6.5
2018-Feb-18 00:00N 29°40' W 094°59'4 8.2
2018-Feb-17 23:30N 29°37' W 094°57'4 7.4
2018-Feb-17 23:00N 29°33' W 094°55'3 6.6
2018-Feb-17 22:30N 29°31' W 094°53'4 7.8
2018-Feb-17 21:59N 29°27' W 094°51'6 5.8
2018-Feb-17 21:01N 29°23' W 094°46'0 5.3
2018-Feb-17 20:59N 29°23' W 094°46'4 0.4
2018-Feb-17 12:04N 29°26' W 094°43'0 0.0
2018-Feb-17 11:44N 29°26' W 094°43'0 0.0
2018-Feb-17 11:28N 29°26' W 094°43'0 0.0
2018-Feb-17 10:28N 29°26' W 094°43'0 0.0
2018-Feb-17 09:58N 29°26' W 094°43'0 0.0
2018-Feb-17 09:29N 29°26' W 094°43'0 0.0
2018-Feb-17 08:56N 29°26' W 094°43'0 0.0
2018-Feb-17 08:30N 29°26' W 094°43'0 0.0
2018-Feb-17 07:57N 29°26' W 094°43'0 0.0
2018-Feb-17 07:28N 29°26' W 094°43'0 0.0
2018-Feb-17 07:00N 29°26' W 094°43'0 0.0
2018-Feb-17 06:30N 29°26' W 094°43'0 0.0
2018-Feb-17 05:58N 29°26' W 094°43'0 0.0
2018-Feb-17 05:30N 29°26' W 094°43'1 2.0
2018-Feb-17 05:00N 29°26' W 094°42'1 1.9
2018-Feb-17 04:30N 29°26' W 094°43'0 0.0
2018-Feb-17 03:57N 29°26' W 094°43'0 0.0
2018-Feb-17 03:30N 29°26' W 094°43'0 0.0
2018-Feb-17 03:00N 29°26' W 094°43'0 0.0
2018-Feb-17 02:30N 29°26' W 094°43'0 0.0
2018-Feb-17 02:01N 29°26' W 094°43'0 0.0
2018-Feb-17 01:30N 29°26' W 094°43'0 0.0
2018-Feb-17 01:00N 29°26' W 094°43'0 0.0
2018-Feb-17 00:30N 29°26' W 094°43'0 0.0
2018-Feb-16 23:57N 29°26' W 094°43'0 0.2
2018-Feb-16 23:29N 29°26' W 094°43'0 0.0
2018-Feb-16 22:58N 29°26' W 094°43'1 1.9
2018-Feb-16 22:30N 29°26' W 094°42'1 2.0
2018-Feb-16 21:55N 29°27' W 094°41'12 3.5
2018-Feb-16 18:35N 29°32' W 094°29'1 5.0
2018-Feb-16 18:27N 29°32' W 094°29'1 2.0
2018-Feb-16 17:53N 29°33' W 094°28'2 2.9
2018-Feb-16 17:20N 29°34' W 094°26'1 3.1
2018-Feb-16 17:00N 29°34' W 094°25'2 4.0
2018-Feb-16 16:31N 29°36' W 094°24'2 4.5
2018-Feb-16 16:00N 29°37' W 094°21'2 3.8
2018-Feb-16 15:30N 29°38' W 094°19'2 3.7
2018-Feb-16 15:00N 29°38' W 094°17'2 5.0
2018-Feb-16 14:30N 29°40' W 094°15'2 4.4
2018-Feb-16 14:00N 29°41' W 094°13'2 4.2
2018-Feb-16 13:30N 29°41' W 094°10'2 3.4
2018-Feb-16 13:00N 29°42' W 094°09'0 0.1
2018-Feb-16 12:31N 29°42' W 094°09'0 0.0
2018-Feb-16 12:00N 29°42' W 094°09'0 0.0
2018-Feb-16 11:30N 29°42' W 094°09'0 0.0
2018-Feb-16 11:00N 29°42' W 094°09'0 0.0
2018-Feb-16 10:30N 29°42' W 094°09'0 0.0
2018-Feb-16 10:00N 29°42' W 094°09'0 0.1
2018-Feb-16 09:30N 29°42' W 094°09'0 0.1
2018-Feb-16 09:01N 29°42' W 094°09'0 0.0
2018-Feb-16 08:30N 29°42' W 094°09'0 0.0
2018-Feb-16 08:00N 29°42' W 094°09'0 0.0
2018-Feb-16 07:31N 29°42' W 094°09'0 0.0
2018-Feb-16 07:00N 29°42' W 094°09'0 0.0
2018-Feb-16 06:30N 29°42' W 094°09'0 0.0
2018-Feb-16 06:00N 29°42' W 094°09'0 0.0
2018-Feb-16 05:29N 29°42' W 094°09'0 0.1
2018-Feb-16 05:00N 29°42' W 094°09'0 0.0
2018-Feb-16 04:30N 29°42' W 094°09'0 0.0
2018-Feb-16 04:00N 29°42' W 094°09'0 0.0
2018-Feb-16 03:30N 29°42' W 094°09'0 0.1
2018-Feb-16 03:00N 29°42' W 094°09'0 0.1
2018-Feb-16 02:30N 29°42' W 094°09'0 0.0
2018-Feb-16 02:00N 29°42' W 094°09'0 0.1
2018-Feb-16 01:30N 29°42' W 094°09'0 0.0
2018-Feb-16 01:00N 29°42' W 094°09'0 0.1
2018-Feb-16 00:30N 29°42' W 094°09'0 0.0
2018-Feb-16 00:00N 29°42' W 094°09'1 1.7
2018-Feb-15 23:30N 29°43' W 094°08'2 3.9
2018-Feb-15 23:00N 29°44' W 094°06'3 5.9
2018-Feb-15 22:30N 29°46' W 094°03'3 5.8
2018-Feb-15 22:00N 29°47' W 094°01'3 5.6
2018-Feb-15 21:30N 29°49' W 093°58'3 5.2
2018-Feb-15 21:00N 29°51' W 093°57'3 6.9
2018-Feb-15 20:30N 29°54' W 093°54'4 7.1
2018-Feb-15 20:00N 29°57' W 093°52'3 5.3
2018-Feb-15 19:30N 29°59' W 093°50'3 6.8
2018-Feb-15 19:00N 30°00' W 093°46'2 4.0
2018-Feb-15 18:30N 30°02' W 093°44'0 0.1
2018-Feb-15 18:00N 30°02' W 093°44'0 0.0
2018-Feb-15 17:30N 30°02' W 093°44'0 0.0
2018-Feb-15 17:00N 30°02' W 093°44'0 0.0
2018-Feb-15 16:30N 30°02' W 093°44'0 0.0
2018-Feb-15 16:01N 30°02' W 093°44'0 0.0
2018-Feb-15 15:30N 30°02' W 093°44'0 0.0
2018-Feb-15 15:00N 30°02' W 093°44'0 0.0
2018-Feb-15 14:30N 30°02' W 093°44'0 0.0
2018-Feb-15 14:00N 30°02' W 093°44'0 0.0
2018-Feb-15 13:31N 30°02' W 093°44'0 0.0
2018-Feb-15 13:00N 30°02' W 093°44'0 0.0
2018-Feb-15 12:30N 30°02' W 093°44'0 0.0
2018-Feb-15 12:00N 30°02' W 093°44'0 0.0
2018-Feb-15 11:30N 30°02' W 093°44'0 0.0
2018-Feb-15 11:00N 30°02' W 093°44'0 0.0
2018-Feb-15 10:30N 30°02' W 093°44'0 0.0
2018-Feb-15 10:00N 30°02' W 093°44'0 0.0
2018-Feb-15 09:30N 30°02' W 093°44'0 0.0
2018-Feb-15 09:00N 30°02' W 093°44'0 0.0
2018-Feb-15 08:30N 30°02' W 093°44'0 0.0
2018-Feb-15 08:00N 30°02' W 093°44'0 0.0
2018-Feb-15 07:30N 30°02' W 093°44'0 0.0
2018-Feb-15 07:00N 30°02' W 093°44'0 0.0
2018-Feb-15 06:30N 30°02' W 093°44'0 0.0
2018-Feb-15 06:00N 30°02' W 093°44'0 0.0
2018-Feb-15 05:31N 30°02' W 093°44'0 0.0
2018-Feb-15 05:00N 30°02' W 093°44'0 0.0
2018-Feb-15 04:30N 30°02' W 093°44'0 0.0
2018-Feb-15 04:00N 30°02' W 093°44'0 0.0
2018-Feb-15 03:30N 30°02' W 093°44'0 0.0
2018-Feb-15 03:00N 30°02' W 093°44'0 0.0
2018-Feb-15 02:30N 30°02' W 093°44'0 0.0
2018-Feb-15 02:00N 30°02' W 093°44'0 0.0
2018-Feb-15 01:30N 30°02' W 093°44'0 0.0
2018-Feb-15 01:00N 30°02' W 093°44'0 0.0
2018-Feb-15 00:30N 30°02' W 093°44'0 0.1
2018-Feb-15 00:00N 30°01' W 093°44'2 3.7
2018-Feb-14 23:30N 30°03' W 093°43'3 5.2
2018-Feb-14 23:00N 30°04' W 093°40'3 5.3
2018-Feb-14 22:30N 30°04' W 093°37'2 4.6
2018-Feb-14 22:00N 30°04' W 093°35'2 4.4
2018-Feb-14 21:30N 30°04' W 093°32'2 4.4
2018-Feb-14 21:00N 30°04' W 093°30'2 4.7
2018-Feb-14 20:30N 30°04' W 093°27'2 4.5
2018-Feb-14 20:00N 30°04' W 093°24'2 4.4
2018-Feb-14 19:30N 30°04' W 093°22'2 4.0
2018-Feb-14 19:00N 30°05' W 093°20'2 3.7
2018-Feb-14 18:30N 30°06' W 093°18'2 4.3
2018-Feb-14 18:00N 30°04' W 093°16'2 3.4
2018-Feb-14 17:30N 30°03' W 093°16'0 0.1
2018-Feb-14 16:59N 30°03' W 093°16'0 0.1
2018-Feb-14 16:30N 30°02' W 093°16'0 0.0
2018-Feb-14 16:00N 30°02' W 093°16'0 0.0
2018-Feb-14 15:30N 30°02' W 093°16'0 0.1
2018-Feb-14 15:00N 30°02' W 093°16'0 0.1
2018-Feb-14 14:30N 30°02' W 093°16'0 0.0
2018-Feb-14 14:00N 30°02' W 093°16'0 0.0
2018-Feb-14 13:30N 30°02' W 093°16'0 0.0
2018-Feb-14 13:00N 30°02' W 093°16'0 0.0
2018-Feb-14 12:30N 30°02' W 093°16'0 0.0
2018-Feb-14 12:00N 30°02' W 093°16'0 0.0
2018-Feb-14 11:30N 30°02' W 093°16'0 0.0
2018-Feb-14 11:00N 30°02' W 093°16'0 0.0
2018-Feb-14 10:30N 30°02' W 093°16'0 0.1
2018-Feb-14 10:00N 30°02' W 093°16'2 3.9
2018-Feb-14 09:30N 30°01' W 093°14'2 4.5
2018-Feb-14 09:00N 29°59' W 093°13'2 4.9
2018-Feb-14 08:30N 29°57' W 093°11'2 4.4
2018-Feb-14 08:00N 29°56' W 093°09'6 0.4
2018-Feb-13 16:09N 29°56' W 093°02'1 5.0
2018-Feb-13 15:59N 29°56' W 093°03'2 5.1
2018-Feb-13 15:30N 29°56' W 093°06'3 5.1
2018-Feb-13 15:00N 29°56' W 093°09'2 4.9
2018-Feb-13 14:29N 29°58' W 093°11'3 5.3
2018-Feb-13 14:00N 29°59' W 093°13'2 5.0
2018-Feb-13 13:30N 30°02' W 093°14'0 0.9
2018-Feb-13 13:00N 30°02' W 093°15'1 1.1
2018-Feb-13 12:30N 30°02' W 093°15'0 0.0
2018-Feb-13 12:00N 30°02' W 093°15'0 0.0
2018-Feb-13 11:27N 30°02' W 093°15'0 0.0
2018-Feb-13 11:00N 30°02' W 093°15'0 0.0
2018-Feb-13 10:30N 30°02' W 093°15'0 0.0
2018-Feb-13 10:00N 30°02' W 093°15'0 0.0
2018-Feb-13 09:30N 30°02' W 093°15'0 0.0
2018-Feb-13 08:59N 30°02' W 093°15'0 0.1
2018-Feb-13 08:30N 30°02' W 093°15'0 0.0
2018-Feb-13 07:59N 30°02' W 093°15'0 0.0
2018-Feb-13 07:28N 30°02' W 093°15'0 0.0
2018-Feb-13 07:00N 30°02' W 093°15'0 0.2
2018-Feb-13 06:30N 30°02' W 093°15'0 0.1
2018-Feb-13 06:00N 30°02' W 093°15'2 3.5
2018-Feb-13 05:29N 30°04' W 093°16'2 4.0
2018-Feb-13 05:00N 30°05' W 093°18'1 2.7
2018-Feb-13 04:30N 30°06' W 093°19'0 0.0
2018-Feb-13 04:00N 30°06' W 093°19'0 0.1
2018-Feb-13 03:30N 30°06' W 093°19'2 4.4
2018-Feb-13 03:00N 30°04' W 093°21'1 2.6
2018-Feb-13 02:30N 30°04' W 093°22'0 0.9
2018-Feb-13 02:00N 30°04' W 093°22'0 0.0
2018-Feb-13 01:30N 30°04' W 093°22'0 0.1
2018-Feb-13 01:00N 30°04' W 093°22'0 0.0
2018-Feb-13 00:30N 30°04' W 093°22'0 0.0
2018-Feb-13 00:00N 30°04' W 093°22'0 0.0
2018-Feb-12 23:30N 30°04' W 093°22'0 0.0
2018-Feb-12 23:00N 30°04' W 093°22'0 0.5
2018-Feb-12 22:30N 30°04' W 093°22'1 1.0
2018-Feb-12 22:00N 30°04' W 093°21'0 0.0
2018-Feb-12 21:29N 30°04' W 093°21'0 0.0
2018-Feb-12 20:55N 30°04' W 093°21'0 0.0
2018-Feb-12 20:27N 30°04' W 093°21'0 0.0
2018-Feb-12 20:00N 30°04' W 093°21'0 0.0
2018-Feb-12 19:25N 30°04' W 093°21'0 0.0
2018-Feb-12 19:00N 30°04' W 093°21'0 0.0
2018-Feb-12 18:30N 30°04' W 093°21'0 0.0
2018-Feb-12 18:00N 30°04' W 093°21'0 0.0
2018-Feb-12 17:29N 30°04' W 093°21'0 0.0
2018-Feb-12 17:00N 30°04' W 093°21'0 0.0
2018-Feb-12 16:29N 30°04' W 093°21'0 0.0
2018-Feb-12 16:00N 30°04' W 093°21'0 0.0
2018-Feb-12 15:30N 30°04' W 093°21'0 0.0
2018-Feb-12 14:59N 30°04' W 093°21'0 0.0
2018-Feb-12 14:29N 30°04' W 093°21'0 0.0
2018-Feb-12 14:00N 30°04' W 093°21'0 0.0
2018-Feb-12 13:30N 30°04' W 093°21'0 0.0
2018-Feb-12 13:00N 30°04' W 093°21'0 0.0
2018-Feb-12 12:30N 30°04' W 093°21'0 0.0
2018-Feb-12 11:59N 30°04' W 093°21'0 0.0
2018-Feb-12 11:30N 30°04' W 093°21'0 0.0
2018-Feb-12 10:59N 30°04' W 093°21'0 0.0
2018-Feb-12 10:30N 30°04' W 093°21'0 0.0
2018-Feb-12 09:55N 30°04' W 093°21'0 0.0
2018-Feb-12 09:25N 30°04' W 093°21'0 0.0
2018-Feb-12 09:00N 30°04' W 093°21'0 0.0
2018-Feb-12 08:29N 30°04' W 093°21'0 0.0
2018-Feb-12 08:00N 30°04' W 093°21'0 0.0
2018-Feb-12 07:30N 30°04' W 093°21'0 0.0
2018-Feb-12 07:00N 30°04' W 093°21'0 0.0
2018-Feb-12 06:30N 30°04' W 093°21'0 0.0
2018-Feb-12 05:55N 30°04' W 093°21'0 0.0
2018-Feb-12 05:30N 30°04' W 093°21'0 0.0
2018-Feb-12 05:00N 30°04' W 093°21'0 0.0
2018-Feb-12 04:27N 30°04' W 093°21'0 0.0
2018-Feb-12 03:57N 30°04' W 093°21'0 0.0
2018-Feb-12 03:30N 30°04' W 093°21'0 0.0
2018-Feb-12 02:59N 30°04' W 093°21'0 0.0
2018-Feb-12 02:29N 30°04' W 093°21'0 0.0
2018-Feb-12 02:00N 30°04' W 093°21'0 0.0
2018-Feb-12 01:30N 30°04' W 093°21'0 0.0
2018-Feb-12 01:00N 30°04' W 093°21'0 0.0
2018-Feb-12 00:30N 30°04' W 093°21'0 0.0
2018-Feb-12 00:00N 30°04' W 093°21'0 0.0
2018-Feb-11 23:30N 30°04' W 093°21'0 0.0
2018-Feb-11 22:59N 30°04' W 093°21'0 0.0
2018-Feb-11 22:30N 30°04' W 093°21'0 0.0
2018-Feb-11 22:00N 30°04' W 093°21'0 0.0
2018-Feb-11 21:29N 30°04' W 093°21'0 0.0
2018-Feb-11 20:55N 30°04' W 093°21'0 0.0
2018-Feb-11 20:30N 30°04' W 093°21'0 0.0
2018-Feb-11 20:00N 30°04' W 093°21'0 0.6
2018-Feb-11 19:27N 30°04' W 093°22'0 0.1
2018-Feb-11 19:00N 30°04' W 093°22'2 3.3
2018-Feb-11 18:30N 30°04' W 093°24'0 0.2
2018-Feb-11 17:58N 30°04' W 093°24'0 0.1
2018-Feb-11 17:30N 30°04' W 093°24'0 0.1
2018-Feb-11 17:00N 30°04' W 093°24'0 0.0
2018-Feb-11 16:30N 30°04' W 093°24'0 0.0
2018-Feb-11 16:00N 30°04' W 093°24'0 0.0
2018-Feb-11 15:30N 30°04' W 093°24'0 0.0
2018-Feb-11 15:00N 30°04' W 093°24'0 0.0
2018-Feb-11 14:30N 30°04' W 093°24'0 0.0
2018-Feb-11 14:00N 30°04' W 093°24'0 0.0
2018-Feb-11 13:30N 30°04' W 093°24'0 0.0
2018-Feb-11 13:00N 30°04' W 093°24'0 0.0
2018-Feb-11 12:30N 30°04' W 093°24'0 0.0
2018-Feb-11 12:00N 30°04' W 093°24'0 0.0
2018-Feb-11 11:30N 30°04' W 093°24'0 0.0
2018-Feb-11 11:00N 30°04' W 093°24'0 0.6
2018-Feb-11 10:30N 30°04' W 093°24'1 2.0
2018-Feb-11 10:00N 30°04' W 093°25'0 0.0
2018-Feb-11 09:30N 30°04' W 093°25'0 0.0
2018-Feb-11 09:00N 30°04' W 093°25'0 0.0
2018-Feb-11 08:30N 30°04' W 093°25'0 0.0
2018-Feb-11 08:00N 30°04' W 093°25'0 0.1
2018-Feb-11 07:30N 30°04' W 093°25'0 0.0
2018-Feb-11 07:00N 30°04' W 093°25'0 0.2
2018-Feb-11 06:30N 30°04' W 093°25'2 3.5
2018-Feb-11 06:00N 30°04' W 093°27'2 4.2
2018-Feb-11 05:30N 30°04' W 093°29'2 4.6
2018-Feb-11 05:00N 30°04' W 093°32'2 3.5
2018-Feb-11 04:30N 30°04' W 093°34'2 3.9
2018-Feb-11 04:00N 30°04' W 093°36'3 5.3
2018-Feb-11 03:30N 30°04' W 093°39'3 5.5
2018-Feb-11 03:00N 30°03' W 093°42'3 5.1
2018-Feb-11 02:30N 30°01' W 093°44'3 5.8
2018-Feb-11 02:00N 29°60' W 093°47'3 6.1
2018-Feb-11 01:30N 29°59' W 093°50'3 5.5
2018-Feb-11 01:00N 29°56' W 093°52'3 6.3
2018-Feb-11 00:30N 29°54' W 093°54'3 6.3
2018-Feb-11 00:00N 29°51' W 093°57'3 5.5
2018-Feb-10 23:30N 29°49' W 093°59'3 5.4
2018-Feb-10 23:00N 29°47' W 094°01'3 5.2
2018-Feb-10 22:30N 29°46' W 094°03'2 4.7
2018-Feb-10 22:00N 29°44' W 094°05'3 5.2
2018-Feb-10 21:30N 29°43' W 094°08'2 5.0
2018-Feb-10 21:00N 29°41' W 094°10'2 5.0
2018-Feb-10 20:30N 29°40' W 094°13'2 4.6
2018-Feb-10 20:00N 29°39' W 094°15'2 5.0
2018-Feb-10 19:30N 29°38' W 094°18'2 5.0
2018-Feb-10 19:00N 29°37' W 094°20'3 4.2
2018-Feb-10 18:21N 29°36' W 094°23'2 4.5
2018-Feb-10 18:00N 29°36' W 094°25'2 3.0
2018-Feb-10 17:25N 29°34' W 094°25'4 4.9
2018-Feb-10 16:32N 29°31' W 094°29'0 6.2
2018-Feb-10 16:28N 29°31' W 094°30'2 1.2
2018-Feb-10 15:07N 29°31' W 094°32'0 0.0
2018-Feb-10 14:58N 29°31' W 094°32'0 0.0
2018-Feb-10 14:27N 29°31' W 094°32'0 0.0
2018-Feb-10 13:59N 29°31' W 094°32'2 3.1
2018-Feb-10 13:29N 29°30' W 094°33'2 3.9
2018-Feb-10 13:00N 29°29' W 094°35'  

Dump ship's entire track history